Clam Lake, WI (54517)

6:56 PM CDT on September 02, 2015 (GMT -0500)
Lake Five | | Change Station
CLOSE
Current Station
Personal Weather Station
Location: Clamlake, WI
Elevation: 1500 ft
Nearby Weather Stations

Elev 1500 ft 46.17 °N, 90.98 °W | Updated 23 seconds ago

Mostly Cloudy
Mostly Cloudy
69.3 °F
Feels Like 69.3 °F
N
0.0
Wind Variable Wind from SSE
Gusts 0.0 mph

Today
High -- | Low -- °F
--% Chance of Precip.
Yesterday
High -- | Low -- °F
Precip. -- in
6:24 AM 7:40 PM
Waning Gibbous, 76% visible
Pressure 29.94 in
Visibility 10.0 miles
Clouds Clear
Dew Point 67 °F
Humidity 93%
Rainfall 1.07 in
Snow Depth Not available.
UV 0 out of 12
Pollen 9.00 out of 12
Air Quality Not available.
Flu Activity Not available.
METAR KASX 022353Z AUTO 04008KT 10SM CLR 21/19 A2994 RMK AO2 SLP138 T02110194 10244 20194 55003
Pressure 29.94 in
Visibility 10.0 miles
Clouds Clear
Dew Point 67 °F
Humidity 93%
Rainfall 1.07 in
Snow Depth Not available.
UV 0 out of 12
Pollen 9.00 out of 12
Air Quality Not available.
Flu Activity Not available.
METAR KASX 022353Z AUTO 04008KT 10SM CLR 21/19 A2994 RMK AO2 SLP138 T02110194 10244 20194 55003

10-Day Weather Forecast

×

Almanac

Astronomy

Sep. 02, 2015 Rise Set
Actual Time
Civil Twilight
Nautical Twilight
Astronomical Twilight
Moon
Length of Visible Light
Length of Day
Tomorrow will be .
, % of the Moon is Illuminated

Today's Extremes

State Highs State Lows

Community

WunderPhotos

Upload Photos

1,851,841 photos uploaded!

WunderBlogs® & News

Nearby

Air Quality

  Air Quality AQ Index Pollutant
Not available.

Snow Depth

Station Depth Elevation

Earthquake Activity

City Distance Mag. Time & Date
Minimum magnitude displayed is 2.5.

Coastal Water Temperatures

Place Temperature

Stations

Nearby Weather Stations

Station Location Temp. Windchill Dew Point Humidity Wind Precip. Elev Updated Type